createdAt,value
2018-11-01T00:01:32.600Z,79.80
2018-11-01T00:04:00.098Z,79.59
2018-11-01T00:06:27.581Z,80.11
2018-11-01T00:08:55.059Z,80.05
2018-11-01T00:11:22.599Z,80.59
2018-11-01T00:13:50.134Z,80.62
2018-11-01T00:16:17.598Z,79.85
2018-11-01T00:18:45.095Z,80.90
2018-11-01T00:21:12.566Z,80.90
2018-11-01T00:23:40.560Z,80.74
2018-11-01T00:26:08.304Z,81.06
2018-11-01T00:28:35.815Z,81.86
2018-11-01T00:31:03.313Z,81.61
2018-11-01T00:33:30.792Z,81.64
2018-11-01T00:35:58.304Z,81.17
2018-11-01T00:38:25.818Z,81.00
2018-11-01T00:40:53.293Z,81.58
2018-11-01T00:43:20.753Z,81.34
2018-11-01T00:45:48.218Z,80.92
2018-11-01T00:48:15.698Z,81.53
2018-11-01T00:50:43.157Z,81.77
2018-11-01T00:53:10.621Z,81.12
2018-11-01T00:55:38.093Z,80.92
2018-11-01T00:58:05.564Z,80.54
2018-11-01T01:00:33.021Z,80.43
2018-11-01T01:03:00.486Z,80.80
2018-11-01T01:05:27.946Z,80.49
2018-11-01T01:07:55.421Z,81.10
2018-11-01T01:10:22.981Z,81.50
2018-11-01T01:12:50.442Z,81.87
2018-11-01T01:15:17.900Z,81.90
2018-11-01T01:17:45.357Z,81.16
2018-11-01T01:20:13.913Z,81.20
2018-11-01T01:22:42.394Z,81.33
2018-11-01T01:25:11.589Z,82.90
2018-11-01T01:27:39.250Z,83.43
2018-11-01T01:30:06.719Z,83.67
2018-11-01T01:32:34.186Z,84.87
2018-11-01T01:35:01.647Z,84.56
2018-11-01T01:37:29.106Z,84.27
2018-11-01T01:39:56.561Z,83.33
2018-11-01T01:42:28.226Z,82.95
2018-11-01T01:44:55.693Z,83.44
2018-11-01T01:47:23.149Z,83.65
2018-11-01T01:49:50.621Z,83.23
2018-11-01T01:52:18.090Z,82.74
2018-11-01T01:54:45.550Z,82.67
2018-11-01T01:57:13.018Z,83.11
2018-11-01T01:59:40.489Z,83.24
2018-11-01T02:02:07.955Z,83.30
2018-11-01T02:04:35.426Z,83.60
2018-11-01T02:07:02.905Z,83.58
2018-11-01T02:09:30.366Z,83.57
2018-11-01T02:11:57.901Z,84.12
2018-11-01T02:14:25.369Z,85.05
2018-11-01T02:16:52.829Z,85.56
2018-11-01T02:19:20.316Z,84.86
2018-11-01T02:21:47.778Z,84.30
2018-11-01T02:24:15.249Z,84.31
2018-11-01T02:26:42.822Z,84.62
2018-11-01T02:29:10.293Z,86.10
2018-11-01T02:31:37.767Z,85.98
2018-11-01T02:34:05.247Z,86.26
2018-11-01T02:36:32.706Z,85.51
2018-11-01T02:39:00.188Z,84.64
2018-11-01T02:41:27.651Z,84.27
2018-11-01T02:43:55.141Z,84.00
2018-11-01T02:46:22.705Z,83.77
2018-11-01T02:48:50.195Z,83.10
2018-11-01T02:51:17.672Z,83.71
2018-11-01T02:53:45.133Z,85.25
2018-11-01T02:56:12.593Z,84.82
2018-11-01T02:58:40.065Z,85.21
2018-11-01T03:01:08.003Z,84.25
2018-11-01T03:03:36.690Z,84.40
2018-11-01T03:06:04.158Z,84.41
2018-11-01T03:08:31.643Z,84.59
2018-11-01T03:10:59.105Z,84.43
2018-11-01T03:13:26.655Z,84.28
2018-11-01T03:15:54.536Z,84.44
2018-11-01T03:18:22.022Z,84.93
2018-11-01T03:20:49.494Z,86.16
2018-11-01T03:23:16.958Z,86.09
2018-11-01T03:25:44.431Z,86.10
2018-11-01T03:28:11.929Z,86.20
2018-11-01T03:30:39.446Z,85.79
2018-11-01T03:33:07.011Z,85.88
2018-11-01T03:35:34.510Z,84.90
2018-11-01T03:38:02.067Z,85.32
2018-11-01T03:40:29.575Z,85.32
2018-11-01T03:42:57.037Z,84.83
2018-11-01T03:45:24.508Z,85.41
2018-11-01T03:47:51.974Z,85.94
2018-11-01T03:50:19.513Z,86.66
2018-11-01T03:52:47.007Z,86.38
2018-11-01T03:55:14.479Z,86.20
2018-11-01T03:57:42.727Z,86.36
2018-11-01T04:00:10.359Z,87.11
2018-11-01T04:02:37.831Z,87.58
2018-11-01T04:05:05.291Z,87.57
2018-11-01T04:07:32.846Z,87.05
2018-11-01T04:10:00.350Z,87.20
2018-11-01T04:12:27.862Z,86.82
2018-11-01T04:14:55.679Z,85.57
2018-11-01T04:17:22.984Z,85.14
2018-11-01T04:19:50.544Z,84.92
2018-11-01T04:22:18.010Z,84.60
2018-11-01T04:24:45.487Z,84.48
2018-11-01T04:27:12.900Z,84.67
2018-11-01T04:29:40.532Z,85.50
2018-11-01T04:32:08.007Z,85.33
2018-11-01T04:34:35.426Z,85.68
2018-11-01T04:37:02.864Z,85.92
2018-11-01T04:39:30.289Z,86.22
2018-11-01T04:41:57.889Z,86.10
2018-11-01T04:44:25.485Z,85.74
2018-11-01T04:46:52.927Z,85.03
2018-11-01T04:49:20.363Z,85.23
2018-11-01T04:51:47.856Z,85.19
2018-11-01T04:54:15.287Z,85.23
2018-11-01T04:56:42.709Z,84.44
2018-11-01T04:59:10.483Z,85.35
2018-11-01T05:01:37.906Z,85.38
2018-11-01T05:04:05.330Z,86.13
2018-11-01T05:06:33.660Z,86.92
2018-11-01T05:09:01.073Z,86.40
2018-11-01T05:11:28.650Z,86.32
2018-11-01T05:13:56.069Z,85.56
2018-11-01T05:16:23.509Z,85.57
2018-11-01T05:18:50.931Z,85.46
2018-11-01T05:21:18.474Z,86.43
2018-11-01T05:23:45.989Z,86.61
2018-11-01T05:26:13.446Z,86.67
2018-11-01T05:28:40.884Z,87.20
2018-11-01T05:31:08.411Z,86.45
2018-11-01T05:33:35.843Z,86.36
2018-11-01T05:36:03.374Z,86.64
2018-11-01T05:38:30.795Z,86.59
2018-11-01T05:40:58.248Z,87.38
2018-11-01T05:43:25.688Z,87.59
2018-11-01T05:45:53.127Z,87.78
2018-11-01T05:48:20.566Z,88.07
2018-11-01T05:50:48.000Z,87.58
2018-11-01T05:53:15.435Z,87.60
2018-11-01T05:55:42.850Z,87.44
2018-11-01T05:58:10.296Z,87.02
2018-11-01T06:00:37.727Z,87.56
2018-11-01T06:03:05.145Z,87.08
2018-11-01T06:05:32.620Z,87.05
2018-11-01T06:08:02.175Z,86.65
2018-11-01T06:10:29.597Z,86.42
2018-11-01T06:12:57.027Z,85.95
2018-11-01T06:15:24.759Z,87.08
2018-11-01T06:17:52.208Z,87.76
2018-11-01T06:20:19.714Z,88.31
2018-11-01T06:22:47.234Z,88.02
2018-11-01T06:25:14.661Z,87.91
2018-11-01T06:27:42.102Z,88.04
2018-11-01T06:30:09.568Z,87.60
2018-11-01T06:32:37.029Z,88.14
2018-11-01T06:35:06.773Z,88.09
2018-11-01T06:37:34.222Z,88.15
2018-11-01T06:40:01.718Z,87.63
2018-11-01T06:42:29.169Z,87.72
2018-11-01T06:44:56.698Z,87.33
2018-11-01T06:47:24.051Z,86.96
2018-11-01T06:49:51.594Z,86.96
2018-11-01T06:52:19.048Z,86.67
2018-11-01T06:54:46.461Z,86.25
2018-11-01T06:57:13.907Z,86.17
2018-11-01T06:59:41.350Z,85.47
2018-11-01T07:02:08.778Z,85.14
2018-11-01T07:04:36.218Z,84.82
2018-11-01T07:07:03.652Z,84.97
2018-11-01T07:09:31.061Z,84.15
2018-11-01T07:11:58.572Z,83.69
2018-11-01T07:14:26.015Z,82.73
2018-11-01T07:16:53.494Z,81.40
2018-11-01T07:19:20.910Z,80.22
2018-11-01T07:21:48.341Z,79.42
2018-11-01T07:24:16.333Z,78.55
2018-11-01T07:26:43.834Z,78.05
2018-11-01T07:29:11.354Z,76.75
2018-11-01T07:31:38.801Z,75.62
2018-11-01T07:34:06.258Z,75.20
2018-11-01T07:36:33.873Z,74.51
2018-11-01T07:39:01.307Z,74.12
2018-11-01T07:41:28.737Z,73.96
2018-11-01T07:43:56.165Z,73.48
2018-11-01T07:46:23.597Z,72.69
2018-11-01T07:48:51.026Z,71.54
2018-11-01T07:51:18.506Z,70.67
2018-11-01T07:53:45.947Z,69.61
2018-11-01T07:56:13.405Z,69.09
2018-11-01T07:58:40.830Z,68.81
2018-11-01T08:01:08.263Z,67.26
2018-11-01T08:03:35.702Z,66.02
2018-11-01T08:06:03.287Z,66.16
2018-11-01T08:08:30.578Z,65.45
2018-11-01T08:10:58.076Z,64.66
2018-11-01T08:13:25.516Z,64.88
2018-11-01T08:15:52.982Z,64.37
2018-11-01T08:18:20.448Z,64.29
2018-11-01T08:20:47.959Z,64.26
2018-11-01T08:23:15.315Z,63.37
2018-11-01T08:25:42.807Z,63.46
2018-11-01T08:28:10.259Z,62.94
2018-11-01T08:30:37.711Z,63.28
2018-11-01T08:33:05.227Z,63.42
2018-11-01T08:35:32.717Z,63.13
2018-11-01T08:38:00.168Z,63.05
2018-11-01T08:40:27.602Z,62.84
2018-11-01T08:42:55.044Z,63.16
2018-11-01T08:45:22.483Z,61.52
2018-11-01T08:47:49.995Z,62.44
2018-11-01T08:50:17.438Z,62.06
2018-11-01T08:52:45.267Z,62.43
2018-11-01T08:55:13.191Z,61.55
2018-11-01T08:57:41.775Z,62.05
2018-11-01T09:00:09.987Z,61.10
2018-11-01T09:02:37.652Z,60.88
2018-11-01T09:05:05.084Z,60.48
2018-11-01T09:07:32.611Z,59.69
2018-11-01T09:10:00.016Z,59.68
2018-11-01T09:12:27.439Z,59.45
2018-11-01T09:14:54.881Z,59.33
2018-11-01T09:17:22.367Z,59.77
2018-11-01T09:19:49.811Z,58.36
2018-11-01T09:22:17.248Z,57.83
2018-11-01T09:24:44.706Z,57.46
2018-11-01T09:27:12.216Z,57.15
2018-11-01T09:29:39.599Z,56.08
2018-11-01T09:32:07.066Z,56.41
2018-11-01T09:34:34.500Z,56.50
2018-11-01T09:37:01.941Z,57.27
2018-11-01T09:39:29.379Z,57.63
2018-11-01T09:41:56.815Z,57.44
2018-11-01T09:44:24.274Z,56.91
2018-11-01T09:46:52.085Z,57.14
2018-11-01T09:49:19.116Z,56.13
2018-11-01T09:51:46.546Z,56.86
2018-11-01T09:54:13.973Z,56.23
2018-11-01T09:56:41.455Z,56.07
2018-11-01T09:59:09.140Z,56.24
2018-11-01T10:01:36.574Z,56.63
2018-11-01T10:04:04.007Z,56.36
2018-11-01T10:06:31.433Z,55.88
2018-11-01T10:08:58.885Z,56.04
2018-11-01T10:11:26.309Z,56.32
2018-11-01T10:13:53.737Z,56.04
2018-11-01T10:16:21.288Z,56.15
2018-11-01T10:18:48.606Z,56.16
2018-11-01T10:21:16.048Z,55.88
2018-11-01T10:23:43.464Z,56.23
2018-11-01T10:26:10.898Z,56.52
2018-11-01T10:28:38.333Z,56.28
2018-11-01T10:31:05.745Z,57.04
2018-11-01T10:33:33.192Z,57.09
2018-11-01T10:36:00.810Z,57.14
2018-11-01T10:38:28.258Z,57.46
2018-11-01T10:40:55.717Z,57.64
2018-11-01T10:43:23.186Z,57.07
2018-11-01T10:45:50.609Z,57.54
2018-11-01T10:48:18.048Z,56.79
2018-11-01T10:50:45.503Z,56.02
2018-11-01T10:53:12.939Z,56.62
2018-11-01T10:55:40.362Z,56.27
2018-11-01T10:58:07.822Z,56.20
2018-11-01T11:00:41.006Z,56.48
2018-11-01T11:03:08.294Z,55.90
2018-11-01T11:05:35.726Z,55.53
2018-11-01T11:08:03.142Z,55.15
2018-11-01T11:10:30.561Z,55.10
2018-11-01T11:12:57.994Z,55.77
2018-11-01T11:15:25.422Z,55.40
2018-11-01T11:17:52.858Z,55.43
2018-11-01T11:20:20.367Z,55.66
2018-11-01T11:22:47.722Z,55.71
2018-11-01T11:25:15.178Z,54.88
2018-11-01T11:27:42.617Z,55.34
2018-11-01T11:30:10.465Z,55.55
2018-11-01T11:32:37.933Z,55.94
2018-11-01T11:35:05.366Z,56.26
2018-11-01T11:37:32.813Z,55.94
2018-11-01T11:40:00.270Z,55.97
2018-11-01T11:42:27.714Z,55.70
2018-11-01T11:44:55.199Z,56.26
2018-11-01T11:47:22.622Z,56.52
2018-11-01T11:49:50.045Z,56.32
2018-11-01T11:52:17.486Z,56.60
2018-11-01T11:54:44.921Z,56.47
2018-11-01T11:57:12.426Z,56.67
2018-11-01T11:59:39.906Z,56.60
2018-11-01T12:02:07.398Z,57.25
2018-11-01T12:04:34.802Z,56.70
2018-11-01T12:07:02.242Z,57.09
2018-11-01T12:09:29.695Z,56.90
2018-11-01T12:11:57.115Z,56.89
2018-11-01T12:14:24.569Z,57.41
2018-11-01T12:16:52.001Z,57.13
2018-11-01T12:19:19.451Z,56.87
2018-11-01T12:21:46.912Z,56.69
2018-11-01T12:24:14.342Z,57.19
2018-11-01T12:26:41.787Z,56.99
2018-11-01T12:29:09.467Z,56.60
2018-11-01T12:31:36.906Z,56.79
2018-11-01T12:34:04.330Z,56.83
2018-11-01T12:36:31.759Z,56.73
2018-11-01T12:38:59.274Z,57.18
2018-11-01T12:41:26.775Z,56.98
2018-11-01T12:43:54.191Z,57.26
2018-11-01T12:46:21.636Z,57.46
2018-11-01T12:48:49.162Z,57.89
2018-11-01T12:51:16.587Z,57.44
2018-11-01T12:53:44.055Z,57.43
2018-11-01T12:56:11.860Z,57.69
2018-11-01T12:58:39.291Z,58.04
2018-11-01T13:01:07.044Z,58.02
2018-11-01T13:03:34.492Z,58.09
2018-11-01T13:06:01.914Z,58.00
2018-11-01T13:08:29.334Z,58.36
2018-11-01T13:10:56.771Z,58.17
2018-11-01T13:13:24.257Z,58.70
2018-11-01T13:15:51.724Z,58.36
2018-11-01T13:18:19.201Z,58.10
2018-11-01T13:20:46.605Z,58.22
2018-11-01T13:23:14.107Z,58.17
2018-11-01T13:25:41.534Z,58.39
2018-11-01T13:28:09.033Z,58.55
2018-11-01T13:30:36.478Z,58.58
2018-11-01T13:33:03.910Z,58.92
2018-11-01T13:35:31.413Z,59.38
2018-11-01T13:37:58.769Z,59.08
2018-11-01T13:40:26.696Z,59.64
2018-11-01T13:42:53.674Z,58.96
2018-11-01T13:45:21.117Z,59.58
2018-11-01T13:47:48.609Z,59.81
2018-11-01T13:50:15.996Z,60.66
2018-11-01T13:52:43.438Z,60.12
2018-11-01T13:55:12.106Z,60.30
2018-11-01T13:57:39.527Z,59.88
2018-11-01T14:00:07.165Z,60.61
2018-11-01T14:02:37.498Z,60.56
2018-11-01T14:05:04.927Z,60.27
2018-11-01T14:07:32.363Z,59.76
2018-11-01T14:09:59.834Z,60.54
2018-11-01T14:12:27.257Z,60.30
2018-11-01T14:14:55.020Z,60.66
2018-11-01T14:17:22.106Z,60.65
2018-11-01T14:19:49.526Z,60.95
2018-11-01T14:22:17.090Z,61.53
2018-11-01T14:24:44.547Z,61.90
2018-11-01T14:27:12.085Z,61.42
2018-11-01T14:29:39.482Z,61.61
2018-11-01T14:32:06.993Z,61.60
2018-11-01T14:34:34.422Z,61.92
2018-11-01T14:37:02.134Z,62.68
2018-11-01T14:39:29.573Z,62.54
2018-11-01T14:41:57.002Z,63.66
2018-11-01T14:44:24.473Z,64.50
2018-11-01T14:46:51.886Z,65.40
2018-11-01T14:49:19.362Z,65.25
2018-11-01T14:51:47.824Z,64.86
2018-11-01T14:54:15.461Z,64.14
2018-11-01T14:56:43.881Z,63.00
2018-11-01T14:59:11.280Z,64.18
2018-11-01T15:01:37.578Z,63.37
2018-11-01T15:04:05.002Z,64.39
2018-11-01T15:06:32.558Z,64.84
2018-11-01T15:08:59.869Z,65.86
2018-11-01T15:11:27.300Z,66.48
2018-11-01T15:13:54.747Z,65.95
2018-11-01T15:16:22.202Z,66.25
2018-11-01T15:18:49.957Z,65.24
2018-11-01T15:21:17.327Z,63.97
2018-11-01T15:23:44.803Z,64.97
2018-11-01T15:26:12.385Z,64.22
2018-11-01T15:28:39.736Z,64.16
2018-11-01T15:31:07.284Z,63.53
2018-11-01T15:33:35.920Z,63.87
2018-11-01T15:36:03.246Z,63.86
2018-11-01T15:38:30.691Z,63.14
2018-11-01T15:41:00.495Z,62.32
2018-11-01T15:43:27.966Z,62.48
2018-11-01T15:45:55.422Z,63.16
2018-11-01T15:48:22.890Z,63.39
2018-11-01T15:50:50.323Z,63.12
2018-11-01T15:53:17.874Z,62.65
2018-11-01T15:55:45.391Z,62.65
2018-11-01T15:58:12.830Z,62.55
2018-11-01T16:00:40.259Z,62.74
2018-11-01T16:03:07.766Z,62.59
2018-11-01T16:05:35.253Z,62.78
2018-11-01T16:08:02.711Z,63.21
2018-11-01T16:10:30.137Z,63.43
2018-11-01T16:12:57.568Z,63.21
2018-11-01T16:15:25.007Z,63.73
2018-11-01T16:17:52.426Z,64.28
2018-11-01T16:20:19.870Z,63.11
2018-11-01T16:22:47.276Z,64.60
2018-11-01T16:25:14.783Z,64.56
2018-11-01T16:27:42.200Z,64.04
2018-11-01T16:30:09.691Z,64.22
2018-11-01T16:32:37.187Z,63.65
2018-11-01T16:35:04.779Z,64.21
2018-11-01T16:37:32.207Z,64.60
2018-11-01T16:39:59.733Z,65.04
2018-11-01T16:42:27.289Z,64.80
2018-11-01T16:44:54.652Z,65.54
2018-11-01T16:47:22.058Z,66.07
2018-11-01T16:49:49.502Z,65.99
2018-11-01T16:52:16.942Z,65.58
2018-11-01T16:54:44.370Z,65.90
2018-11-01T16:57:11.801Z,66.00
2018-11-01T16:59:39.244Z,65.37
2018-11-01T17:02:06.659Z,65.58
2018-11-01T17:04:34.245Z,65.12
2018-11-01T17:07:01.675Z,64.85
2018-11-01T17:09:29.134Z,65.05
2018-11-01T17:11:56.566Z,65.12
2018-11-01T17:14:24.002Z,64.91
2018-11-01T17:16:51.441Z,64.33
2018-11-01T17:19:18.865Z,64.28
2018-11-01T17:21:46.331Z,63.80
2018-11-01T17:24:13.771Z,64.20
2018-11-01T17:26:41.200Z,64.31
2018-11-01T17:29:08.622Z,63.69
2018-11-01T17:31:36.122Z,63.83
2018-11-01T17:34:03.581Z,63.82
2018-11-01T17:36:30.995Z,63.97
2018-11-01T17:38:58.431Z,64.40
2018-11-01T17:41:25.845Z,64.20
2018-11-01T17:43:53.344Z,64.21
2018-11-01T17:46:20.769Z,64.45
2018-11-01T17:48:48.138Z,64.37
2018-11-01T17:51:15.718Z,64.86
2018-11-01T17:53:43.053Z,64.47
2018-11-01T17:56:10.490Z,64.08
2018-11-01T17:58:37.909Z,64.14
2018-11-01T18:01:05.346Z,64.20
2018-11-01T18:03:32.781Z,64.23
2018-11-01T18:06:00.210Z,64.52
2018-11-01T18:08:27.854Z,64.15
2018-11-01T18:10:55.070Z,64.64
2018-11-01T18:13:22.499Z,65.08
2018-11-01T18:15:49.929Z,63.92
2018-11-01T18:18:17.363Z,64.80
2018-11-01T18:20:44.789Z,65.02
2018-11-01T18:23:12.358Z,64.87
2018-11-01T18:25:45.185Z,65.23
2018-11-01T18:28:12.575Z,64.75
2018-11-01T18:30:40.025Z,65.05
2018-11-01T18:33:07.680Z,64.75
2018-11-01T18:35:34.902Z,64.94
2018-11-01T18:38:02.336Z,65.04
2018-11-01T18:40:29.778Z,65.09
2018-11-01T18:42:57.215Z,65.71
2018-11-01T18:45:24.645Z,66.17
2018-11-01T18:47:52.072Z,65.39
2018-11-01T18:50:19.531Z,65.76
2018-11-01T18:52:46.974Z,65.53
2018-11-01T18:55:14.401Z,66.05
2018-11-01T18:57:41.946Z,66.22
2018-11-01T19:00:09.631Z,65.69
2018-11-01T19:02:37.060Z,65.65
2018-11-01T19:05:04.492Z,66.09
2018-11-01T19:07:31.945Z,65.96
2018-11-01T19:09:59.386Z,66.55
2018-11-01T19:12:26.818Z,67.12
2018-11-01T19:14:54.359Z,67.43
2018-11-01T19:17:21.761Z,67.46
2018-11-01T19:19:49.189Z,67.33
2018-11-01T19:22:16.625Z,67.85
2018-11-01T19:24:44.074Z,68.03
2018-11-01T19:27:11.746Z,67.97
2018-11-01T19:29:38.956Z,68.35
2018-11-01T19:32:06.385Z,68.15
2018-11-01T19:34:33.952Z,68.54
2018-11-01T19:37:01.242Z,68.32
2018-11-01T19:39:28.670Z,67.82
2018-11-01T19:41:56.091Z,67.97
2018-11-01T19:44:23.553Z,68.16
2018-11-01T19:46:51.026Z,68.27
2018-11-01T19:49:18.391Z,68.66
2018-11-01T19:51:45.820Z,68.85
2018-11-01T19:54:13.307Z,69.67
2018-11-01T19:56:40.694Z,70.29
2018-11-01T19:59:08.154Z,70.44
2018-11-01T20:01:35.611Z,71.39
2018-11-01T20:04:03.041Z,73.43
2018-11-01T20:06:30.482Z,73.36
2018-11-01T20:08:58.013Z,74.60
2018-11-01T20:11:25.387Z,74.31
2018-11-01T20:13:52.843Z,75.19
2018-11-01T20:16:20.274Z,74.72
2018-11-01T20:18:47.849Z,75.30
2018-11-01T20:21:15.134Z,74.90
2018-11-01T20:23:42.648Z,76.24
2018-11-01T20:26:10.066Z,76.49
2018-11-01T20:28:37.584Z,77.28
2018-11-01T20:31:05.053Z,77.43
2018-11-01T20:33:32.525Z,76.33
2018-11-01T20:35:59.926Z,77.12
2018-11-01T20:38:27.441Z,77.35
2018-11-01T20:40:54.913Z,76.95
2018-11-01T20:43:22.375Z,78.81
2018-11-01T20:45:49.789Z,79.81
2018-11-01T20:48:17.217Z,78.51
2018-11-01T20:50:44.647Z,80.62
2018-11-01T20:53:12.083Z,80.26
2018-11-01T20:55:39.514Z,79.67
2018-11-01T20:58:06.951Z,79.28
2018-11-01T21:00:34.382Z,80.33
2018-11-01T21:03:01.818Z,81.47
2018-11-01T21:05:29.250Z,81.42
2018-11-01T21:07:56.673Z,80.51
2018-11-01T21:10:24.118Z,80.54
2018-11-01T21:12:51.551Z,80.31
2018-11-01T21:15:18.993Z,81.08
2018-11-01T21:17:46.434Z,82.01
2018-11-01T21:20:13.863Z,81.73
2018-11-01T21:22:41.421Z,80.94
2018-11-01T21:25:09.991Z,81.48
2018-11-01T21:27:37.456Z,82.21
2018-11-01T21:30:04.925Z,81.19
2018-11-01T21:32:32.371Z,81.60
2018-11-01T21:34:59.984Z,81.53
2018-11-01T21:37:27.351Z,81.57
2018-11-01T21:39:54.780Z,82.35
2018-11-01T21:42:22.217Z,81.50
2018-11-01T21:44:49.746Z,81.14
2018-11-01T21:47:17.202Z,81.86
2018-11-01T21:49:44.649Z,81.74
2018-11-01T21:52:12.094Z,83.19
2018-11-01T21:54:39.558Z,84.21
2018-11-01T21:57:07.001Z,83.00
2018-11-01T21:59:34.446Z,83.50
2018-11-01T22:02:01.875Z,82.72
2018-11-01T22:04:29.319Z,82.32
2018-11-01T22:06:56.774Z,83.54
2018-11-01T22:09:24.229Z,83.39
2018-11-01T22:11:51.649Z,83.29
2018-11-01T22:14:19.082Z,83.40
2018-11-01T22:16:46.505Z,83.55
2018-11-01T22:19:13.945Z,82.95
2018-11-01T22:21:41.372Z,83.00
2018-11-01T22:24:08.797Z,83.05
2018-11-01T22:26:36.252Z,82.12
2018-11-01T22:29:03.705Z,84.16
2018-11-01T22:31:31.151Z,84.21
2018-11-01T22:33:58.587Z,83.16
2018-11-01T22:36:26.026Z,83.19
2018-11-01T22:38:53.518Z,83.59
2018-11-01T22:41:20.878Z,84.70
2018-11-01T22:43:48.349Z,85.39
2018-11-01T22:46:15.960Z,84.18
2018-11-01T22:48:43.721Z,85.46
2018-11-01T22:51:11.133Z,85.41
2018-11-01T22:53:38.555Z,84.24
2018-11-01T22:56:05.981Z,85.14
2018-11-01T22:58:33.420Z,85.05
2018-11-01T23:01:00.856Z,83.74
2018-11-01T23:03:28.427Z,85.55
2018-11-01T23:05:55.862Z,85.61
2018-11-01T23:08:23.463Z,85.40
2018-11-01T23:10:51.031Z,84.92
2018-11-01T23:13:18.467Z,84.73
2018-11-01T23:15:45.913Z,84.23
2018-11-01T23:18:13.727Z,84.12
2018-11-01T23:20:41.158Z,85.06
2018-11-01T23:23:08.601Z,84.69
2018-11-01T23:25:36.060Z,84.68
2018-11-01T23:28:03.495Z,84.56
2018-11-01T23:30:30.936Z,85.41
2018-11-01T23:32:58.422Z,84.40
2018-11-01T23:35:25.798Z,85.50
2018-11-01T23:37:58.606Z,84.12
2018-11-01T23:40:31.393Z,84.61
2018-11-01T23:43:04.074Z,84.54
2018-11-01T23:45:36.863Z,85.49
2018-11-01T23:48:03.562Z,84.82
2018-11-01T23:50:47.507Z,84.75
2018-11-01T23:53:17.871Z,85.71
2018-11-01T23:55:45.310Z,86.15
2018-11-01T23:58:12.774Z,85.89
